Terminal Aerodrome Forecast
Issued by NWS Cleveland, OH

Home | Current Version | Previous Version | Graphics & Text | Print | Product List | Glossary Off
Versions: 1 2 3 4 5 6 7 8 9 10 11 12 13 14

549
FTUS41 KCLE 260530
TAFMFD
TAF
KMFD 260530Z 2606/2706 16005KT P6SM OVC250
     FM260900 19010KT P6SM SCT025 OVC080
     FM261330 24012KT 5SM -SHRA OVC025
     FM261900 27012G20KT P6SM SCT025 OVC060
     FM262300 27008KT P6SM SCT060=

USA.gov is the U.S. government's official web portal to all federal, state and local government web resources and services.